createdAt,value
2023-03-13T00:00:17.376Z,4.38
2023-03-13T00:05:41.836Z,3.78
2023-03-13T00:10:46.623Z,3.03
2023-03-13T00:15:50.162Z,3.20
2023-03-13T00:20:59.847Z,3.00
2023-03-13T00:26:06.846Z,5.00
2023-03-13T00:31:12.287Z,3.35
2023-03-13T00:36:18.031Z,2.95
2023-03-13T00:41:24.328Z,3.47
2023-03-13T00:46:29.835Z,3.50
2023-03-13T00:51:34.773Z,4.50
2023-03-13T00:56:40.202Z,5.50
2023-03-13T01:01:44.184Z,3.80
2023-03-13T01:06:47.585Z,4.10
2023-03-13T01:11:52.269Z,4.18
2023-03-13T01:16:55.717Z,4.15
2023-03-13T01:21:59.089Z,4.63
2023-03-13T01:27:04.173Z,3.90
2023-03-13T01:32:08.124Z,3.92
2023-03-13T01:37:11.782Z,4.65
2023-03-13T01:42:16.485Z,4.88
2023-03-13T01:47:20.060Z,6.47
2023-03-13T01:52:27.349Z,4.82
2023-03-13T01:57:35.032Z,4.15
2023-03-13T02:02:41.957Z,4.32
2023-03-13T02:07:49.509Z,4.68
2023-03-13T02:12:55.236Z,7.32
2023-03-13T02:18:00.206Z,6.07
2023-03-13T02:23:14.039Z,4.40
2023-03-13T02:28:22.070Z,5.13
2023-03-13T02:33:30.126Z,6.97
2023-03-13T02:38:37.654Z,5.20
2023-03-13T02:43:42.884Z,4.60
2023-03-13T02:48:48.973Z,5.30
2023-03-13T02:53:55.164Z,7.63
2023-03-13T02:58:59.878Z,5.03
2023-03-13T03:04:03.490Z,5.60
2023-03-13T03:09:08.497Z,8.07
2023-03-13T03:14:13.898Z,9.68
2023-03-13T03:19:17.347Z,7.80
2023-03-13T03:24:20.826Z,9.60
2023-03-13T03:29:25.716Z,7.55
2023-03-13T03:34:29.101Z,9.43
2023-03-13T03:39:32.501Z,10.27
2023-03-13T03:44:37.501Z,9.13
2023-03-13T03:49:41.240Z,12.73
2023-03-13T03:54:44.617Z,12.75
2023-03-13T03:59:49.398Z,13.80
2023-03-13T04:04:53.084Z,15.77
2023-03-13T04:09:56.605Z,20.48
2023-03-13T04:15:01.592Z,13.02
2023-03-13T04:20:06.628Z,12.85
2023-03-13T04:25:11.085Z,14.05
2023-03-13T04:30:18.578Z,14.40
2023-03-13T04:35:22.236Z,11.60
2023-03-13T04:40:25.597Z,15.02
2023-03-13T04:45:30.316Z,13.70
2023-03-13T04:50:33.756Z,11.45
2023-03-13T04:55:37.097Z,15.07
2023-03-13T05:00:42.803Z,11.07
2023-03-13T05:05:46.749Z,14.50
2023-03-13T05:10:50.412Z,11.50
2023-03-13T05:15:55.656Z,13.65
2023-03-13T05:20:59.082Z,14.75
2023-03-13T05:26:02.500Z,11.45
2023-03-13T05:31:07.323Z,15.85
2023-03-13T05:36:10.999Z,14.13
2023-03-13T05:41:14.794Z,11.85
2023-03-13T05:46:19.771Z,18.23
2023-03-13T05:51:23.219Z,17.05
2023-03-13T05:56:26.694Z,16.40
2023-03-13T06:01:31.633Z,13.63
2023-03-13T06:06:35.293Z,14.80
2023-03-13T06:11:38.996Z,15.05
2023-03-13T06:16:43.799Z,17.63
2023-03-13T06:21:47.592Z,19.35
2023-03-13T06:26:51.686Z,15.80
2023-03-13T06:31:56.507Z,11.90
2023-03-13T06:37:00.593Z,12.88
2023-03-13T06:42:03.995Z,12.18
2023-03-13T06:47:09.193Z,15.82
2023-03-13T06:52:12.605Z,11.90
2023-03-13T06:57:16.031Z,12.60
2023-03-13T07:02:20.773Z,16.05
2023-03-13T07:07:31.836Z,13.88
2023-03-13T07:12:36.083Z,15.50
2023-03-13T07:17:40.963Z,18.40
2023-03-13T07:22:44.491Z,10.80
2023-03-13T07:27:51.844Z,12.35
2023-03-13T07:32:56.720Z,13.45
2023-03-13T07:38:00.164Z,14.18
2023-03-13T07:43:04.423Z,10.38
2023-03-13T07:48:09.270Z,11.52
2023-03-13T07:53:15.389Z,16.98
2023-03-13T07:58:19.875Z,16.25
2023-03-13T08:03:25.669Z,10.90
2023-03-13T08:08:30.507Z,13.48
2023-03-13T08:13:35.275Z,12.57
2023-03-13T08:18:42.084Z,8.63
2023-03-13T08:23:45.819Z,15.95
2023-03-13T08:28:54.103Z,9.55
2023-03-13T08:33:59.342Z,11.10
2023-03-13T08:39:05.163Z,13.13
2023-03-13T08:44:11.430Z,11.13
2023-03-13T08:49:17.681Z,10.55
2023-03-13T08:54:21.181Z,7.85
2023-03-13T08:59:24.701Z,11.23
2023-03-13T09:04:29.500Z,8.25
2023-03-13T09:09:33.194Z,8.63
2023-03-13T09:14:37.017Z,9.55
2023-03-13T09:19:57.648Z,8.98
2023-03-13T09:25:03.241Z,10.55
2023-03-13T09:30:07.875Z,11.55
2023-03-13T09:35:12.683Z,9.63
2023-03-13T09:40:18.256Z,13.93
2023-03-13T09:45:31.309Z,8.27
2023-03-13T09:50:38.677Z,14.10
2023-03-13T09:55:45.147Z,10.93
2023-03-13T10:00:52.749Z,14.00
2023-03-13T10:06:02.205Z,9.70
2023-03-13T10:11:12.392Z,7.78
2023-03-13T10:16:23.338Z,11.73
2023-03-13T10:21:35.352Z,8.93
2023-03-13T10:26:39.182Z,6.55
2023-03-13T10:31:44.538Z,7.65
2023-03-13T10:36:51.229Z,10.02
2023-03-13T10:42:00.934Z,10.40
2023-03-13T10:47:05.170Z,8.23
2023-03-13T10:52:33.562Z,9.43
2023-03-13T10:57:38.266Z,13.75
2023-03-13T11:02:41.800Z,8.82
2023-03-13T11:07:48.097Z,6.68
2023-03-13T11:12:52.722Z,9.23
2023-03-13T11:18:02.410Z,5.53
2023-03-13T11:23:22.093Z,10.93
2023-03-13T11:28:37.468Z,6.97
2023-03-13T11:33:53.127Z,12.07
2023-03-13T11:39:12.524Z,11.95
2023-03-13T11:44:28.690Z,9.25
2023-03-13T11:49:46.700Z,10.60
2023-03-13T11:55:04.321Z,15.95
2023-03-13T12:00:23.962Z,9.75
2023-03-13T12:05:31.033Z,10.07
2023-03-13T12:10:42.345Z,6.85
2023-03-13T12:15:49.948Z,10.27
2023-03-13T12:20:59.462Z,9.50
2023-03-13T12:26:10.013Z,6.22
2023-03-13T12:31:22.679Z,4.70
2023-03-13T12:36:34.951Z,6.20
2023-03-13T12:41:43.982Z,8.63
2023-03-13T12:46:49.497Z,8.80
2023-03-13T12:52:09.643Z,5.78
2023-03-13T12:57:46.149Z,4.03
2023-03-13T13:03:02.685Z,6.53
2023-03-13T13:08:06.526Z,4.75
2023-03-13T13:13:30.343Z,2.85
2023-03-13T13:18:34.871Z,3.55
2023-03-13T13:23:39.442Z,5.70
2023-03-13T13:28:45.530Z,6.43
2023-03-13T13:33:48.926Z,4.18
2023-03-13T13:38:53.020Z,7.07
2023-03-13T13:44:29.593Z,3.65
2023-03-13T13:49:54.835Z,4.95
2023-03-13T13:54:59.465Z,8.38
2023-03-13T14:00:19.749Z,16.30
2023-03-13T14:05:26.976Z,11.00
2023-03-13T14:10:41.887Z,7.03
2023-03-13T14:15:47.916Z,4.35
2023-03-13T14:21:02.665Z,8.05
2023-03-13T14:26:16.332Z,4.68
2023-03-13T14:31:26.927Z,7.20
2023-03-13T14:36:31.143Z,5.80
2023-03-13T14:41:39.351Z,8.85
2023-03-13T14:46:45.446Z,9.15
2023-03-13T14:51:59.311Z,6.03
2023-03-13T14:57:21.376Z,10.23
2023-03-13T15:02:29.710Z,14.48
2023-03-13T15:07:38.848Z,16.38
2023-03-13T15:12:44.869Z,14.77
2023-03-13T15:17:50.045Z,16.13
2023-03-13T15:22:53.684Z,11.32
2023-03-13T15:27:57.599Z,13.57
2023-03-13T15:33:02.746Z,11.18
2023-03-13T15:38:12.331Z,7.75
2023-03-13T15:43:17.031Z,9.68
2023-03-13T15:48:25.635Z,6.43
2023-03-13T15:53:31.252Z,6.65
2023-03-13T15:58:34.697Z,7.13
2023-03-13T16:03:39.839Z,7.82
2023-03-13T16:08:43.543Z,8.82
2023-03-13T16:13:47.001Z,5.13
2023-03-13T16:18:53.334Z,6.85
2023-03-13T16:23:57.425Z,8.00
2023-03-13T16:29:00.877Z,10.82
2023-03-13T16:34:05.916Z,10.13
2023-03-13T16:39:15.030Z,4.80
2023-03-13T16:44:18.683Z,6.85
2023-03-13T16:49:23.446Z,10.80
2023-03-13T16:54:26.900Z,11.48
2023-03-13T16:59:30.813Z,7.65
2023-03-13T17:04:35.725Z,8.38
2023-03-13T17:09:39.449Z,10.32
2023-03-13T17:14:42.861Z,6.85
2023-03-13T17:19:48.290Z,9.73
2023-03-13T17:24:52.828Z,5.15
2023-03-13T17:29:56.495Z,5.85
2023-03-13T17:35:01.595Z,7.03
2023-03-13T17:40:17.097Z,4.65
2023-03-13T17:45:20.868Z,6.50
2023-03-13T17:50:27.753Z,4.68
2023-03-13T17:55:31.239Z,7.40
2023-03-13T18:00:35.036Z,5.80
2023-03-13T18:05:42.455Z,8.55
2023-03-13T18:10:46.581Z,9.15
2023-03-13T18:15:50.474Z,10.15
2023-03-13T18:20:56.070Z,7.75
2023-03-13T18:26:00.044Z,12.32
2023-03-13T18:31:03.946Z,8.75
2023-03-13T18:36:18.804Z,8.55
2023-03-13T18:41:22.748Z,7.38
2023-03-13T18:46:30.587Z,11.50
2023-03-13T18:51:35.505Z,10.50
2023-03-13T18:56:39.223Z,9.07
2023-03-13T19:01:43.078Z,6.13
2023-03-13T19:06:48.807Z,9.35
2023-03-13T19:11:52.406Z,7.60
2023-03-13T19:16:57.786Z,9.60
2023-03-13T19:22:02.912Z,6.40
2023-03-13T19:27:07.286Z,7.20
2023-03-13T19:32:15.154Z,7.95
2023-03-13T19:37:20.378Z,11.35
2023-03-13T19:42:24.296Z,10.25
2023-03-13T19:47:27.925Z,12.32
2023-03-13T19:52:33.233Z,10.98
2023-03-13T19:57:37.204Z,7.43
2023-03-13T20:02:40.802Z,7.05
2023-03-13T20:07:46.941Z,7.72
2023-03-13T20:12:50.564Z,8.25
2023-03-13T20:17:54.484Z,7.43
2023-03-13T20:23:01.588Z,6.55
2023-03-13T20:28:05.589Z,6.20
2023-03-13T20:33:20.855Z,5.57
2023-03-13T20:38:26.414Z,7.37
2023-03-13T20:43:30.633Z,7.78
2023-03-13T20:48:37.158Z,9.93
2023-03-13T20:53:49.056Z,7.47
2023-03-13T20:58:57.649Z,7.93
2023-03-13T21:04:01.380Z,8.18
2023-03-13T21:09:08.694Z,7.22
2023-03-13T21:14:12.376Z,6.55
2023-03-13T21:19:16.230Z,8.13
2023-03-13T21:24:22.388Z,6.00
2023-03-13T21:29:26.080Z,7.28
2023-03-13T21:34:29.568Z,7.38
2023-03-13T21:39:34.776Z,7.63
2023-03-13T21:44:38.223Z,9.32
2023-03-13T21:49:41.660Z,10.30
2023-03-13T21:54:46.984Z,7.72
2023-03-13T21:59:50.468Z,9.15
2023-03-13T22:04:53.928Z,7.88
2023-03-13T22:09:58.812Z,9.18
2023-03-13T22:15:02.395Z,7.18
2023-03-13T22:20:07.536Z,11.45
2023-03-13T22:25:12.452Z,8.60
2023-03-13T22:30:16.329Z,8.82
2023-03-13T22:35:20.052Z,7.50
2023-03-13T22:40:24.938Z,8.15
2023-03-13T22:45:28.388Z,9.00
2023-03-13T22:50:31.743Z,12.57
2023-03-13T22:55:36.902Z,10.25
2023-03-13T23:00:40.316Z,13.90
2023-03-13T23:05:45.165Z,10.82
2023-03-13T23:10:50.420Z,9.35
2023-03-13T23:15:56.208Z,9.60
2023-03-13T23:20:59.857Z,6.50
2023-03-13T23:26:06.690Z,7.50
2023-03-13T23:31:11.764Z,7.60
2023-03-13T23:36:17.018Z,7.38
2023-03-13T23:41:22.532Z,7.88
2023-03-13T23:46:26.982Z,9.20
2023-03-13T23:51:30.319Z,9.73
2023-03-13T23:56:35.307Z,6.80
